createdAt,value
2016-12-08T00:00:23.305Z,927.88
2016-12-08T00:00:51.484Z,927.88
2016-12-08T00:01:19.485Z,927.91
2016-12-08T00:01:47.610Z,927.87
2016-12-08T00:02:15.729Z,927.88
2016-12-08T00:02:43.851Z,927.9
2016-12-08T00:03:11.770Z,927.89
2016-12-08T00:03:39.847Z,927.89
2016-12-08T00:04:07.800Z,927.89
2016-12-08T00:04:35.937Z,927.91
2016-12-08T00:05:04.099Z,927.88
2016-12-08T00:05:32.202Z,927.87
2016-12-08T00:06:00.324Z,927.83
2016-12-08T00:06:28.477Z,927.82
2016-12-08T00:06:56.513Z,927.84
2016-12-08T00:07:24.518Z,927.82
2016-12-08T00:07:52.639Z,927.85
2016-12-08T00:08:20.700Z,927.82
2016-12-08T00:08:48.785Z,927.81
2016-12-08T00:09:16.859Z,927.82
2016-12-08T00:09:45.069Z,927.83
2016-12-08T00:10:13.209Z,927.82
2016-12-08T00:10:41.458Z,927.82
2016-12-08T00:11:09.497Z,927.78
2016-12-08T00:11:37.667Z,927.82
2016-12-08T00:12:05.891Z,927.78
2016-12-08T00:12:34.134Z,927.8
2016-12-08T00:13:02.413Z,927.84
2016-12-08T00:13:30.550Z,927.81
2016-12-08T00:13:58.790Z,927.81
2016-12-08T00:14:26.871Z,927.82
2016-12-08T00:14:54.921Z,927.85
2016-12-08T00:15:23.107Z,927.82
2016-12-08T00:15:51.234Z,927.82
2016-12-08T00:16:19.369Z,927.82
2016-12-08T00:16:47.608Z,927.78
2016-12-08T00:17:15.733Z,927.82
2016-12-08T00:17:43.900Z,927.8
2016-12-08T00:18:11.958Z,927.79
2016-12-08T00:18:40.164Z,927.78
2016-12-08T00:19:08.318Z,927.78
2016-12-08T00:19:36.363Z,927.76
2016-12-08T00:20:04.412Z,927.72
2016-12-08T00:20:32.464Z,927.77
2016-12-08T00:21:00.720Z,927.72
2016-12-08T00:21:29.028Z,927.7
2016-12-08T00:21:57.197Z,927.74
2016-12-08T00:22:25.371Z,927.7
2016-12-08T00:22:53.506Z,927.72
2016-12-08T00:23:21.628Z,927.72
2016-12-08T00:23:49.453Z,927.71
2016-12-08T00:24:17.679Z,927.67
2016-12-08T00:24:45.779Z,927.66
2016-12-08T00:25:13.917Z,927.65
2016-12-08T00:25:42.118Z,927.64
2016-12-08T00:26:10.233Z,927.59
2016-12-08T00:26:38.315Z,927.62
2016-12-08T00:27:06.737Z,927.61
2016-12-08T00:27:34.828Z,927.59
2016-12-08T00:28:02.856Z,927.57
2016-12-08T00:28:30.965Z,927.62
2016-12-08T00:28:58.937Z,927.62
2016-12-08T00:29:27.139Z,927.6
2016-12-08T00:29:55.278Z,927.63
2016-12-08T00:30:23.443Z,927.58
2016-12-08T00:30:51.629Z,927.63
2016-12-08T00:31:19.805Z,927.59
2016-12-08T00:31:47.868Z,927.58
2016-12-08T00:32:16.129Z,927.54
2016-12-08T00:32:44.135Z,927.54
2016-12-08T00:33:12.310Z,927.55
2016-12-08T00:33:40.505Z,927.57
2016-12-08T00:34:08.770Z,927.61
2016-12-08T00:34:36.863Z,927.59
2016-12-08T00:35:04.843Z,927.61
2016-12-08T00:35:32.983Z,927.59
2016-12-08T00:36:01.258Z,927.57
2016-12-08T00:36:29.516Z,927.54
2016-12-08T00:36:57.559Z,927.6
2016-12-08T00:37:25.802Z,927.57
2016-12-08T00:37:54.040Z,927.56
2016-12-08T00:38:22.142Z,927.56
2016-12-08T00:38:50.157Z,927.55
2016-12-08T00:39:18.218Z,927.56
2016-12-08T00:39:46.334Z,927.54
2016-12-08T00:40:14.378Z,927.54
2016-12-08T00:40:42.487Z,927.52
2016-12-08T00:41:10.523Z,927.53
2016-12-08T00:41:38.615Z,927.52
2016-12-08T00:42:06.775Z,927.49
2016-12-08T00:42:34.908Z,927.49
2016-12-08T00:43:02.830Z,927.5
2016-12-08T00:43:31.032Z,927.49
2016-12-08T00:43:59.231Z,927.48
2016-12-08T00:44:27.483Z,927.49
2016-12-08T00:44:55.723Z,927.49
2016-12-08T00:45:23.858Z,927.49
2016-12-08T00:45:51.909Z,927.45
2016-12-08T00:46:20.191Z,927.46
2016-12-08T00:46:48.345Z,927.46
2016-12-08T00:47:16.340Z,927.46
2016-12-08T00:47:44.424Z,927.46
2016-12-08T00:48:12.534Z,927.49
2016-12-08T00:48:40.813Z,927.43
2016-12-08T00:49:08.765Z,927.45
2016-12-08T00:49:36.789Z,927.47
2016-12-08T00:50:04.832Z,927.49
2016-12-08T00:50:33.054Z,927.47
2016-12-08T00:51:01.212Z,927.49
2016-12-08T00:51:29.289Z,927.52
2016-12-08T00:51:57.327Z,927.51
2016-12-08T00:52:25.632Z,927.52
2016-12-08T00:52:53.680Z,927.51
2016-12-08T00:53:21.694Z,927.49
2016-12-08T00:53:49.761Z,927.52
2016-12-08T00:54:17.828Z,927.51
2016-12-08T00:54:46.063Z,927.52
2016-12-08T00:55:14.272Z,927.5
2016-12-08T00:55:42.451Z,927.48
2016-12-08T00:56:10.421Z,927.56
2016-12-08T00:56:38.556Z,927.53
2016-12-08T00:57:06.723Z,927.53
2016-12-08T00:57:34.851Z,927.5
2016-12-08T00:58:02.824Z,927.56
2016-12-08T00:58:30.917Z,927.51
2016-12-08T00:58:59.062Z,927.52
2016-12-08T00:59:26.924Z,927.54
2016-12-08T00:59:55.210Z,927.51
2016-12-08T01:00:23.373Z,927.53
2016-12-08T01:00:51.540Z,927.55
2016-12-08T01:01:19.572Z,927.52
2016-12-08T01:01:47.711Z,927.52
2016-12-08T01:02:15.911Z,927.51
2016-12-08T01:02:44.038Z,927.56
2016-12-08T01:03:12.145Z,927.54
2016-12-08T01:03:40.170Z,927.56
2016-12-08T01:04:08.200Z,927.51
2016-12-08T01:04:36.297Z,927.57
2016-12-08T01:05:04.871Z,927.55
2016-12-08T01:05:33.119Z,927.55
2016-12-08T01:06:01.320Z,927.55
2016-12-08T01:06:29.489Z,927.57
2016-12-08T01:06:57.585Z,927.58
2016-12-08T01:07:25.621Z,927.57
2016-12-08T01:07:53.622Z,927.6
2016-12-08T01:08:21.693Z,927.59
2016-12-08T01:08:49.630Z,927.61
2016-12-08T01:09:17.809Z,927.63
2016-12-08T01:09:45.994Z,927.63
2016-12-08T01:10:14.160Z,927.66
2016-12-08T01:10:42.286Z,927.67
2016-12-08T01:11:10.438Z,927.66
2016-12-08T01:11:38.725Z,927.68
2016-12-08T01:12:06.760Z,927.73
2016-12-08T01:12:35.005Z,927.67
2016-12-08T01:13:03.119Z,927.67
2016-12-08T01:13:31.093Z,927.69
2016-12-08T01:13:59.230Z,927.69
2016-12-08T01:14:27.172Z,927.69
2016-12-08T01:14:55.425Z,927.66
2016-12-08T01:15:23.511Z,927.66
2016-12-08T01:15:51.592Z,927.67
2016-12-08T01:16:19.705Z,927.65
2016-12-08T01:16:47.700Z,927.67
2016-12-08T01:17:15.824Z,927.63
2016-12-08T01:17:44.045Z,927.64
2016-12-08T01:18:12.317Z,927.62
2016-12-08T01:18:40.562Z,927.63
2016-12-08T01:19:08.692Z,927.63
2016-12-08T01:19:36.727Z,927.62
2016-12-08T01:20:04.748Z,927.64
2016-12-08T01:20:32.827Z,927.65
2016-12-08T01:21:00.754Z,927.64
2016-12-08T01:21:28.830Z,927.64
2016-12-08T01:21:56.897Z,927.63
2016-12-08T01:22:25.150Z,927.63
2016-12-08T01:22:53.131Z,927.64
2016-12-08T01:23:21.241Z,927.64
2016-12-08T01:23:49.375Z,927.6
2016-12-08T01:24:17.410Z,927.63
2016-12-08T01:24:45.495Z,927.63
2016-12-08T01:25:13.628Z,927.6
2016-12-08T01:25:41.651Z,927.63
2016-12-08T01:26:09.696Z,927.58
2016-12-08T01:26:37.919Z,927.62
2016-12-08T01:27:06.078Z,927.61
2016-12-08T01:27:34.319Z,927.6
2016-12-08T01:28:02.381Z,927.67
2016-12-08T01:28:30.443Z,927.63
2016-12-08T01:28:58.640Z,927.64
2016-12-08T01:29:26.810Z,927.65
2016-12-08T01:29:55.033Z,927.64
2016-12-08T01:30:23.261Z,927.68
2016-12-08T01:30:51.525Z,927.67
2016-12-08T01:31:19.497Z,927.69
2016-12-08T01:31:47.744Z,927.67
2016-12-08T01:32:15.811Z,927.69
2016-12-08T01:32:43.881Z,927.7
2016-12-08T01:33:12.093Z,927.68
2016-12-08T01:33:40.320Z,927.68
2016-12-08T01:34:08.430Z,927.69
2016-12-08T01:34:36.540Z,927.68
2016-12-08T01:35:04.741Z,927.69
2016-12-08T01:35:32.701Z,927.67
2016-12-08T01:36:00.771Z,927.68
2016-12-08T01:36:28.897Z,927.69
2016-12-08T01:36:56.995Z,927.68
2016-12-08T01:37:25.183Z,927.7
2016-12-08T01:37:53.528Z,927.67
2016-12-08T01:38:21.748Z,927.68
2016-12-08T01:38:49.978Z,927.67
2016-12-08T01:39:18.121Z,927.65
2016-12-08T01:39:46.334Z,927.66
2016-12-08T01:40:14.373Z,927.68
2016-12-08T01:40:42.463Z,927.69
2016-12-08T01:41:10.631Z,927.71
2016-12-08T01:41:38.662Z,927.69
2016-12-08T01:42:06.763Z,927.7
2016-12-08T01:42:34.816Z,927.68
2016-12-08T01:43:03.087Z,927.7
2016-12-08T01:43:31.221Z,927.73
2016-12-08T01:43:59.481Z,927.74
2016-12-08T01:44:27.687Z,927.74
2016-12-08T01:44:55.724Z,927.74
2016-12-08T01:45:23.757Z,927.73
2016-12-08T01:45:52.318Z,927.76
2016-12-08T01:46:20.550Z,927.73
2016-12-08T01:46:48.700Z,927.71
2016-12-08T01:47:16.875Z,927.73
2016-12-08T01:47:45.198Z,927.75
2016-12-08T01:48:13.262Z,927.74
2016-12-08T01:48:41.493Z,927.71
2016-12-08T01:49:09.724Z,927.73
2016-12-08T01:49:37.965Z,927.71
2016-12-08T01:50:06.213Z,927.72
2016-12-08T01:50:34.478Z,927.73
2016-12-08T01:51:02.405Z,927.77
2016-12-08T01:51:30.611Z,927.74
2016-12-08T01:51:58.828Z,927.77
2016-12-08T01:52:26.857Z,927.77
2016-12-08T01:52:55.356Z,927.77
2016-12-08T01:53:23.408Z,927.8
2016-12-08T01:53:51.610Z,927.79
2016-12-08T01:54:19.685Z,927.79
2016-12-08T01:54:47.809Z,927.77
2016-12-08T01:55:15.825Z,927.8
2016-12-08T01:55:44.034Z,927.78
2016-12-08T01:56:12.257Z,927.78
2016-12-08T01:56:40.453Z,927.78
2016-12-08T01:57:08.581Z,927.76
2016-12-08T01:57:36.821Z,927.77
2016-12-08T01:58:04.949Z,927.77
2016-12-08T01:58:33.112Z,927.77
2016-12-08T01:59:01.207Z,927.77
2016-12-08T01:59:29.369Z,927.78
2016-12-08T01:59:57.396Z,927.76
2016-12-08T02:00:25.612Z,927.72
2016-12-08T02:00:53.743Z,927.76
2016-12-08T02:01:21.828Z,927.74
2016-12-08T02:01:49.791Z,927.75
2016-12-08T02:02:17.971Z,927.75
2016-12-08T02:02:46.285Z,927.74
2016-12-08T02:03:14.348Z,927.74
2016-12-08T02:03:42.486Z,927.69
2016-12-08T02:04:10.699Z,927.71
2016-12-08T02:04:38.825Z,927.69
2016-12-08T02:05:06.953Z,927.71
2016-12-08T02:05:35.093Z,927.66
2016-12-08T02:06:02.956Z,927.64
2016-12-08T02:06:31.107Z,927.6
2016-12-08T02:06:59.171Z,927.64
2016-12-08T02:07:27.359Z,927.61
2016-12-08T02:07:55.761Z,927.64
2016-12-08T02:08:23.908Z,927.63
2016-12-08T02:08:51.942Z,927.62
2016-12-08T02:09:20.107Z,927.58
2016-12-08T02:09:48.149Z,927.56
2016-12-08T02:10:16.228Z,927.56
2016-12-08T02:10:44.430Z,927.57
2016-12-08T02:11:12.530Z,927.55
2016-12-08T02:11:40.561Z,927.52
2016-12-08T02:12:08.684Z,927.51
2016-12-08T02:12:36.724Z,927.53
2016-12-08T02:13:05.036Z,927.54
2016-12-08T02:13:33.246Z,927.53
2016-12-08T02:14:01.429Z,927.49
2016-12-08T02:14:29.453Z,927.51
2016-12-08T02:14:57.588Z,927.51
2016-12-08T02:15:25.628Z,927.55
2016-12-08T02:15:53.773Z,927.52
2016-12-08T02:16:22.016Z,927.53
2016-12-08T02:16:49.979Z,927.52
2016-12-08T02:17:18.118Z,927.54
2016-12-08T02:17:46.258Z,927.51
2016-12-08T02:18:14.538Z,927.52
2016-12-08T02:18:42.631Z,927.54
2016-12-08T02:19:10.794Z,927.52
2016-12-08T02:19:38.882Z,927.51
2016-12-08T02:20:06.945Z,927.49
2016-12-08T02:20:34.993Z,927.5
2016-12-08T02:21:03.112Z,927.5
2016-12-08T02:21:31.186Z,927.48
2016-12-08T02:21:59.195Z,927.46
2016-12-08T02:22:27.289Z,927.46
2016-12-08T02:22:55.432Z,927.48
2016-12-08T02:23:23.534Z,927.46
2016-12-08T02:23:51.388Z,927.48
2016-12-08T02:24:19.528Z,927.48
2016-12-08T02:24:47.562Z,927.49
2016-12-08T02:25:15.687Z,927.51
2016-12-08T02:25:43.790Z,927.48
2016-12-08T02:26:11.915Z,927.5
2016-12-08T02:26:40.154Z,927.5
2016-12-08T02:27:08.179Z,927.53
2016-12-08T02:27:36.288Z,927.51
2016-12-08T02:28:04.505Z,927.5
2016-12-08T02:28:32.639Z,927.44
2016-12-08T02:29:00.758Z,927.48
2016-12-08T02:29:28.834Z,927.46
2016-12-08T02:29:57.123Z,927.52
2016-12-08T02:30:25.227Z,927.52
2016-12-08T02:30:53.296Z,927.49
2016-12-08T02:31:21.435Z,927.48
2016-12-08T02:31:49.566Z,927.48
2016-12-08T02:32:17.641Z,927.44
2016-12-08T02:32:45.455Z,927.44
2016-12-08T02:33:13.667Z,927.42
2016-12-08T02:33:41.657Z,927.35
2016-12-08T02:34:09.896Z,927.36
2016-12-08T02:34:38.128Z,927.37
2016-12-08T02:35:06.191Z,927.36
2016-12-08T02:35:34.322Z,927.36
2016-12-08T02:36:02.436Z,927.35
2016-12-08T02:36:30.480Z,927.33
2016-12-08T02:36:58.663Z,927.33
2016-12-08T02:37:26.810Z,927.34
2016-12-08T02:37:55.068Z,927.33
2016-12-08T02:38:23.334Z,927.31
2016-12-08T02:38:51.560Z,927.33
2016-12-08T02:39:19.839Z,927.32
2016-12-08T02:39:48.033Z,927.32
2016-12-08T02:40:16.156Z,927.32
2016-12-08T02:40:44.248Z,927.31
2016-12-08T02:41:12.351Z,927.29
2016-12-08T02:41:40.605Z,927.28
2016-12-08T02:42:08.706Z,927.27
2016-12-08T02:42:36.788Z,927.29
2016-12-08T02:43:04.819Z,927.27
2016-12-08T02:43:33.237Z,927.28
2016-12-08T02:44:01.015Z,927.26
2016-12-08T02:44:29.174Z,927.26
2016-12-08T02:44:57.131Z,927.3
2016-12-08T02:45:25.275Z,927.3
2016-12-08T02:45:53.246Z,927.25
2016-12-08T02:46:21.291Z,927.31
2016-12-08T02:46:49.338Z,927.27
2016-12-08T02:47:17.564Z,927.28
2016-12-08T02:47:45.687Z,927.3
2016-12-08T02:48:13.674Z,927.3
2016-12-08T02:48:41.917Z,927.27
2016-12-08T02:49:09.937Z,927.3
2016-12-08T02:49:37.980Z,927.28
2016-12-08T02:50:06.116Z,927.28
2016-12-08T02:50:34.257Z,927.3
2016-12-08T02:51:02.444Z,927.28
2016-12-08T02:51:30.503Z,927.27
2016-12-08T02:51:58.595Z,927.27
2016-12-08T02:52:26.685Z,927.26
2016-12-08T02:52:54.724Z,927.29
2016-12-08T02:53:23.010Z,927.28
2016-12-08T02:53:51.234Z,927.27
2016-12-08T02:54:19.357Z,927.28
2016-12-08T02:54:47.529Z,927.25
2016-12-08T02:55:15.745Z,927.28
2016-12-08T02:55:43.885Z,927.26
2016-12-08T02:56:12.027Z,927.26
2016-12-08T02:56:40.268Z,927.22
2016-12-08T02:57:08.522Z,927.2
2016-12-08T02:57:36.606Z,927.22
2016-12-08T02:58:04.771Z,927.19
2016-12-08T02:58:32.900Z,927.2
2016-12-08T02:59:01.064Z,927.16
2016-12-08T02:59:29.207Z,927.18
2016-12-08T02:59:57.465Z,927.16
2016-12-08T03:00:25.745Z,927.15
2016-12-08T03:00:53.934Z,927.16
2016-12-08T03:01:21.981Z,927.12
2016-12-08T03:01:50.051Z,927.12
2016-12-08T03:02:18.285Z,927.13
2016-12-08T03:02:46.328Z,927.09
2016-12-08T03:03:14.520Z,927.07
2016-12-08T03:03:42.753Z,927.07
2016-12-08T03:04:10.970Z,927.02
2016-12-08T03:04:39.082Z,927.01
2016-12-08T03:05:07.255Z,927.02
2016-12-08T03:05:35.515Z,926.99
2016-12-08T03:06:03.751Z,926.99
2016-12-08T03:06:31.706Z,927
2016-12-08T03:06:59.849Z,926.97
2016-12-08T03:07:28.014Z,926.98
2016-12-08T03:07:56.069Z,926.96
2016-12-08T03:08:24.232Z,927.02
2016-12-08T03:08:52.385Z,927.04
2016-12-08T03:09:20.577Z,927.01
2016-12-08T03:09:48.651Z,927.05
2016-12-08T03:10:16.895Z,927.01
2016-12-08T03:10:45.121Z,927.01
2016-12-08T03:11:13.122Z,927.05
2016-12-08T03:11:41.228Z,927.06
2016-12-08T03:12:09.395Z,927.05
2016-12-08T03:12:37.392Z,927.04
2016-12-08T03:13:05.491Z,927.08
2016-12-08T03:13:33.773Z,927.07
2016-12-08T03:14:01.850Z,927.06
2016-12-08T03:14:29.881Z,927.08
2016-12-08T03:14:58.016Z,927.06
2016-12-08T03:15:26.242Z,927.04
2016-12-08T03:15:54.330Z,927.02
2016-12-08T03:16:22.339Z,927.02
2016-12-08T03:16:50.381Z,927
2016-12-08T03:17:18.314Z,926.96
2016-12-08T03:17:46.429Z,927
2016-12-08T03:18:14.666Z,926.97
2016-12-08T03:18:43.019Z,926.98
2016-12-08T03:19:11.099Z,926.97
2016-12-08T03:19:39.150Z,926.99
2016-12-08T03:20:07.400Z,927
2016-12-08T03:20:35.551Z,927.01
2016-12-08T03:21:03.789Z,927
2016-12-08T03:21:32.025Z,926.96
2016-12-08T03:22:00.235Z,926.94
2016-12-08T03:22:28.360Z,926.94
2016-12-08T03:22:56.490Z,926.96
2016-12-08T03:23:24.523Z,927.01
2016-12-08T03:23:52.593Z,926.99
2016-12-08T03:24:20.801Z,926.99
2016-12-08T03:24:48.855Z,926.98
2016-12-08T03:25:17.063Z,926.99
2016-12-08T03:25:45.095Z,927.02
2016-12-08T03:26:13.325Z,927.01
2016-12-08T03:26:41.353Z,927.01
2016-12-08T03:27:09.479Z,927.03
2016-12-08T03:27:37.751Z,927.04
2016-12-08T03:28:05.974Z,927.01
2016-12-08T03:28:34.224Z,927.01
2016-12-08T03:29:02.340Z,927.03
2016-12-08T03:29:30.315Z,927
2016-12-08T03:29:58.621Z,927.03
2016-12-08T03:30:26.616Z,927.02
2016-12-08T03:30:54.798Z,927.01
2016-12-08T03:31:22.823Z,926.99
2016-12-08T03:31:51.022Z,927.01
2016-12-08T03:32:19.275Z,927.02
2016-12-08T03:32:47.405Z,927.02
2016-12-08T03:33:15.521Z,926.96
2016-12-08T03:33:43.866Z,926.98
2016-12-08T03:34:11.725Z,926.98
2016-12-08T03:34:39.978Z,926.97
2016-12-08T03:35:08.085Z,926.97
2016-12-08T03:35:36.339Z,926.94
2016-12-08T03:36:04.469Z,926.93
2016-12-08T03:36:32.697Z,926.93
2016-12-08T03:37:00.710Z,926.92
2016-12-08T03:38:06.167Z,926.9
2016-12-08T03:38:34.459Z,926.88
2016-12-08T03:39:02.772Z,926.87
2016-12-08T03:39:30.858Z,926.88
2016-12-08T03:39:59.101Z,926.86
2016-12-08T03:40:27.389Z,926.84
2016-12-08T03:40:55.554Z,926.85
2016-12-08T03:41:23.739Z,926.82
2016-12-08T03:41:52.014Z,926.82
2016-12-08T03:42:20.295Z,926.79
2016-12-08T03:42:48.400Z,926.81
2016-12-08T03:43:16.731Z,926.79
2016-12-08T03:43:44.991Z,926.8
2016-12-08T03:44:13.102Z,926.78
2016-12-08T03:44:41.321Z,926.8
2016-12-08T03:45:09.425Z,926.8
2016-12-08T03:45:37.487Z,926.8
2016-12-08T03:46:05.676Z,926.76
2016-12-08T03:46:33.945Z,926.78
2016-12-08T03:47:02.382Z,926.81
2016-12-08T03:47:30.359Z,926.78
2016-12-08T03:47:58.391Z,926.75
2016-12-08T03:48:26.631Z,926.76
2016-12-08T03:48:54.893Z,926.73
2016-12-08T03:49:22.983Z,926.71
2016-12-08T03:49:51.148Z,926.72
2016-12-08T03:50:19.547Z,926.68
2016-12-08T03:50:47.634Z,926.66
2016-12-08T03:51:15.840Z,926.64
2016-12-08T03:51:44.021Z,926.61
2016-12-08T03:52:12.180Z,926.63
2016-12-08T03:52:40.184Z,926.61
2016-12-08T03:53:08.270Z,926.57
2016-12-08T03:53:36.431Z,926.57
2016-12-08T03:54:04.525Z,926.57
2016-12-08T03:54:32.677Z,926.56
2016-12-08T03:55:00.983Z,926.57
2016-12-08T03:55:29.148Z,926.56
2016-12-08T03:55:57.333Z,926.54
2016-12-08T03:56:25.499Z,926.54
2016-12-08T03:56:53.778Z,926.57
2016-12-08T03:57:21.735Z,926.58
2016-12-08T03:57:49.978Z,926.56
2016-12-08T03:58:18.297Z,926.53
2016-12-08T03:58:46.496Z,926.58
2016-12-08T03:59:14.701Z,926.56
2016-12-08T03:59:42.788Z,926.54
2016-12-08T04:00:10.830Z,926.56
2016-12-08T04:00:38.930Z,926.56
2016-12-08T04:01:07.148Z,926.55
2016-12-08T04:01:35.249Z,926.57
2016-12-08T04:02:03.515Z,926.53
2016-12-08T04:02:31.513Z,926.53
2016-12-08T04:02:59.626Z,926.56
2016-12-08T04:03:27.879Z,926.51
2016-12-08T04:03:56.033Z,926.52
2016-12-08T04:04:24.201Z,926.5
2016-12-08T04:04:52.179Z,926.48
2016-12-08T04:05:20.398Z,926.47
2016-12-08T04:05:48.567Z,926.47
2016-12-08T04:06:16.765Z,926.49
2016-12-08T04:06:44.883Z,926.52
2016-12-08T04:07:13.011Z,926.47
2016-12-08T04:07:41.289Z,926.46
2016-12-08T04:08:09.582Z,926.47
2016-12-08T04:08:37.767Z,926.47
2016-12-08T04:09:06.041Z,926.42
2016-12-08T04:09:34.232Z,926.39
2016-12-08T04:10:02.386Z,926.38
2016-12-08T04:10:30.447Z,926.38
2016-12-08T04:10:58.535Z,926.4
2016-12-08T04:11:26.701Z,926.34
2016-12-08T04:11:54.760Z,926.32
2016-12-08T04:12:22.914Z,926.31
2016-12-08T04:12:51.088Z,926.36
2016-12-08T04:13:19.329Z,926.34
2016-12-08T04:13:47.553Z,926.35
2016-12-08T04:14:15.924Z,926.35
2016-12-08T04:14:44.007Z,926.39
2016-12-08T04:15:11.937Z,926.32
2016-12-08T04:15:40.124Z,926.36
2016-12-08T04:16:08.132Z,926.42
2016-12-08T04:16:36.369Z,926.41
2016-12-08T04:17:04.486Z,926.37
2016-12-08T04:17:32.768Z,926.4
2016-12-08T04:18:01.007Z,926.36
2016-12-08T04:18:29.020Z,926.35
2016-12-08T04:18:57.211Z,926.35
2016-12-08T04:19:25.498Z,926.32
2016-12-08T04:19:53.677Z,926.34
2016-12-08T04:20:21.986Z,926.3
2016-12-08T04:20:50.257Z,926.31
2016-12-08T04:21:18.471Z,926.3
2016-12-08T04:21:46.559Z,926.29
2016-12-08T04:22:14.692Z,926.27
2016-12-08T04:22:42.984Z,926.28
2016-12-08T04:23:11.130Z,926.33
2016-12-08T04:23:39.317Z,926.3
2016-12-08T04:24:07.383Z,926.32
2016-12-08T04:24:35.481Z,926.3
2016-12-08T04:25:03.781Z,926.29
2016-12-08T04:25:31.960Z,926.31
2016-12-08T04:26:00.192Z,926.3
2016-12-08T04:26:28.347Z,926.28
2016-12-08T04:26:56.446Z,926.27
2016-12-08T04:27:24.701Z,926.3
2016-12-08T04:27:52.870Z,926.31
2016-12-08T04:28:21.171Z,926.28
2016-12-08T04:28:49.299Z,926.28
2016-12-08T04:29:17.520Z,926.24
2016-12-08T04:29:45.845Z,926.29
2016-12-08T04:30:13.961Z,926.27
2016-12-08T04:30:42.231Z,926.28
2016-12-08T04:31:10.270Z,926.28
2016-12-08T04:31:38.332Z,926.25
2016-12-08T04:32:06.547Z,926.26
2016-12-08T04:32:34.640Z,926.28
2016-12-08T04:33:02.774Z,926.26
2016-12-08T04:33:31.045Z,926.26
2016-12-08T04:33:59.122Z,926.24
2016-12-08T04:34:27.437Z,926.23
2016-12-08T04:34:55.504Z,926.19
2016-12-08T04:35:23.679Z,926.18
2016-12-08T04:35:51.958Z,926.21
2016-12-08T04:36:20.022Z,926.18
2016-12-08T04:36:48.282Z,926.19
2016-12-08T04:37:16.245Z,926.17
2016-12-08T04:37:44.372Z,926.18
2016-12-08T04:38:12.466Z,926.15
2016-12-08T04:38:40.591Z,926.14
2016-12-08T04:39:08.668Z,926.15
2016-12-08T04:39:37.065Z,926.16
2016-12-08T04:40:05.206Z,926.14
2016-12-08T04:40:33.483Z,926.16
2016-12-08T04:41:01.656Z,926.17
2016-12-08T04:41:29.811Z,926.15
2016-12-08T04:41:58.008Z,926.13
2016-12-08T04:42:26.004Z,926.13
2016-12-08T04:42:54.149Z,926.1
2016-12-08T04:43:22.185Z,926.1
2016-12-08T04:43:50.370Z,926.12
2016-12-08T04:44:18.748Z,926.12
2016-12-08T04:44:46.921Z,926.13
2016-12-08T04:45:15.009Z,926.12
2016-12-08T04:45:43.093Z,926.09
2016-12-08T04:46:11.294Z,926.1
2016-12-08T04:46:39.584Z,926.1
2016-12-08T04:47:07.596Z,926.13
2016-12-08T04:47:35.833Z,926.1
2016-12-08T04:48:04.015Z,926.1
2016-12-08T04:48:32.149Z,926.08
2016-12-08T04:49:00.459Z,926.08
2016-12-08T04:49:28.715Z,926.09
2016-12-08T04:49:56.922Z,926.09
2016-12-08T04:50:25.073Z,926.11
2016-12-08T04:50:53.248Z,926.12
2016-12-08T04:51:21.354Z,926.15
2016-12-08T04:51:49.564Z,926.15
2016-12-08T04:52:17.708Z,926.14
2016-12-08T04:52:45.962Z,926.15
2016-12-08T04:53:14.062Z,926.17
2016-12-08T04:53:42.272Z,926.17
2016-12-08T04:54:10.420Z,926.18
2016-12-08T04:54:38.663Z,926.22
2016-12-08T04:55:06.705Z,926.23
2016-12-08T04:55:34.741Z,926.18
2016-12-08T04:56:02.887Z,926.19
2016-12-08T04:56:31.195Z,926.22
2016-12-08T04:56:59.079Z,926.22
2016-12-08T04:57:27.263Z,926.25
2016-12-08T04:57:55.511Z,926.22
2016-12-08T04:58:23.740Z,926.22
2016-12-08T04:58:51.844Z,926.23
2016-12-08T04:59:20.106Z,926.25
2016-12-08T04:59:48.359Z,926.2
2016-12-08T05:00:16.603Z,926.28
2016-12-08T05:00:44.895Z,926.21
2016-12-08T05:01:13.078Z,926.23
2016-12-08T05:01:40.990Z,926.22
2016-12-08T05:02:09.106Z,926.24
2016-12-08T05:02:37.323Z,926.25
2016-12-08T05:03:05.591Z,926.25
2016-12-08T05:03:33.700Z,926.24
2016-12-08T05:04:02.025Z,926.26
2016-12-08T05:04:30.232Z,926.26
2016-12-08T05:04:58.288Z,926.28
2016-12-08T05:05:26.596Z,926.28
2016-12-08T05:05:54.579Z,926.27
2016-12-08T05:06:22.760Z,926.29
2016-12-08T05:06:50.862Z,926.26
2016-12-08T05:07:19.088Z,926.31
2016-12-08T05:07:47.280Z,926.31
2016-12-08T05:09:09.719Z,926.28
2016-12-08T05:09:38.165Z,926.24
2016-12-08T05:10:06.313Z,926.3
2016-12-08T05:10:34.576Z,926.25
2016-12-08T05:11:02.744Z,926.2
2016-12-08T05:11:30.957Z,926.25
2016-12-08T05:11:59.181Z,926.21
2016-12-08T05:12:27.273Z,926.23
2016-12-08T05:12:55.353Z,926.22
2016-12-08T05:13:23.665Z,926.23
2016-12-08T05:13:51.693Z,926.23
2016-12-08T05:14:19.795Z,926.19
2016-12-08T05:14:48.107Z,926.22
2016-12-08T05:15:16.148Z,926.22
2016-12-08T05:15:44.234Z,926.22
2016-12-08T05:16:12.511Z,926.26
2016-12-08T05:16:40.637Z,926.26
2016-12-08T05:17:08.709Z,926.28
2016-12-08T05:17:36.969Z,926.32
2016-12-08T05:18:05.087Z,926.28
2016-12-08T05:18:33.214Z,926.29
2016-12-08T05:19:01.476Z,926.27
2016-12-08T05:19:29.642Z,926.26
2016-12-08T05:19:57.921Z,926.23
2016-12-08T05:20:25.951Z,926.27
2016-12-08T05:20:54.039Z,926.3
2016-12-08T05:21:22.221Z,926.28
2016-12-08T05:21:50.392Z,926.28
2016-12-08T05:22:18.685Z,926.3
2016-12-08T05:22:46.791Z,926.3
2016-12-08T05:23:14.976Z,926.32
2016-12-08T05:23:43.155Z,926.29
2016-12-08T05:24:11.274Z,926.28
2016-12-08T05:24:39.604Z,926.32
2016-12-08T05:25:07.783Z,926.37
2016-12-08T05:25:35.994Z,926.36
2016-12-08T05:26:04.104Z,926.34
2016-12-08T05:26:32.053Z,926.38
2016-12-08T05:27:00.103Z,926.36
2016-12-08T05:27:28.410Z,926.37
2016-12-08T05:27:56.572Z,926.35
2016-12-08T05:28:24.846Z,926.35
2016-12-08T05:28:52.885Z,926.34
2016-12-08T05:29:21.094Z,926.29
2016-12-08T05:29:49.345Z,926.3
2016-12-08T05:30:17.502Z,926.27
2016-12-08T05:30:45.576Z,926.26
2016-12-08T05:31:13.765Z,926.25
2016-12-08T05:31:42.055Z,926.28
2016-12-08T05:32:10.304Z,926.29
2016-12-08T05:32:38.602Z,926.28
2016-12-08T05:33:06.931Z,926.31
2016-12-08T05:33:35.162Z,926.33
2016-12-08T05:34:03.388Z,926.31
2016-12-08T05:34:31.560Z,926.32
2016-12-08T05:34:59.560Z,926.34
2016-12-08T05:35:27.750Z,926.36
2016-12-08T05:35:55.856Z,926.38
2016-12-08T05:36:24.079Z,926.37
2016-12-08T05:36:52.414Z,926.36
2016-12-08T05:37:20.603Z,926.4
2016-12-08T05:37:48.867Z,926.39
2016-12-08T05:38:17.078Z,926.39
2016-12-08T05:38:45.222Z,926.39
2016-12-08T05:39:13.307Z,926.4
2016-12-08T05:39:41.729Z,926.37
2016-12-08T05:40:10.018Z,926.39
2016-12-08T05:40:38.236Z,926.35
2016-12-08T05:41:06.375Z,926.37
2016-12-08T05:41:34.533Z,926.38
2016-12-08T05:42:02.698Z,926.38
2016-12-08T05:42:30.953Z,926.36
2016-12-08T05:42:59.195Z,926.38
2016-12-08T05:43:27.414Z,926.35
2016-12-08T05:43:55.766Z,926.38
2016-12-08T05:44:24.042Z,926.3
2016-12-08T05:44:52.222Z,926.35
2016-12-08T05:45:20.439Z,926.33
2016-12-08T05:45:48.689Z,926.34
2016-12-08T05:46:16.855Z,926.33
2016-12-08T05:46:44.960Z,926.36
2016-12-08T05:47:12.866Z,926.36
2016-12-08T05:47:40.997Z,926.34
2016-12-08T05:48:09.123Z,926.31
2016-12-08T05:48:37.118Z,926.31
2016-12-08T05:49:05.231Z,926.29
2016-12-08T05:49:33.470Z,926.34
2016-12-08T05:50:01.864Z,926.31
2016-12-08T05:50:30.136Z,926.34
2016-12-08T05:50:58.281Z,926.29
2016-12-08T05:51:26.662Z,926.31
2016-12-08T05:51:54.781Z,926.3
2016-12-08T05:52:23.103Z,926.34
2016-12-08T05:52:51.314Z,926.27
2016-12-08T05:53:19.529Z,926.28
2016-12-08T05:53:47.644Z,926.27
2016-12-08T05:54:15.778Z,926.28